Portada
METAR-TAF:

METAR-TAF

Aeroports :

Xi'an, Xina

latitud: 34-26N, longitud: 108-45E, altitud: 479 m

Observació

L'informe es va fer fa 10 minuts, a les 19:00 UTC
Vent 2 kt amb direcció variable
Temperatura 2°C
Humitat 93%
Pressió 1022 hPa
Visibilitat 10 km o més
sense núvols per sota de 1500 mi sense presència de cumulonimbus.

METAR: ZLXY 021900Z VRB01MPS CAVOK 02/01 Q1022 NOSIG

Hora: 03:10 (19:10 UTC)

Pronòstic

L'informe es va fer fa 3 hores i 54 minuts, a les 15:16 UTC
Pronòstic vàlid del 02 a les 18 UTC al 03 a les 18 UTC
Vent 6 kt del Sud-Oest
Visibilitat: 3000 m
calitja

TAF: ZLXY 021516Z 0218/0318 23003MPS 3000 HZ NSC TX17/0307Z TNM02/0223Z

Observacions i pronòstics meteorològics de més de 4000 aeroports (METAR i TAF).

Les estacions disponibles són els punts grocs i vermells al mapa.

Posi el ratolí al punt desitjat per veure el nom de l'estació.

Feu clic per veure les observacions i els pronòstics meteorològics.

Per canviar el mapa: feu clic els botons verds amb una creu de color negre per apropar; al botó verd amb un guió per allunyar la imatge; o en les fletxes verdes per a mapes adjacents.


METAR-TAF: